Terminal Aerodrome Forecast
Issued by NWS

Home | Current Version | Previous Version | Text Only | Print | Product List | Glossary On
Versions: 1 2 3 4 5 6 7 8 9 10 11 12 13 14 15 16 17 18 19 20 21 22 23 24 25 26 27 28 29 30 31 32
853
FTAK31 PAFA 231730
TAFASC
TAF
PASC 231730Z 2318/2418 24010KT 6SM -SN BKN025 OVC035=

USA.gov is the U.S. government's official web portal to all federal, state and local government web resources and services.